Time;durP1;ratioP1;P1;durP2;ratioP2;P2;SDS_P1;SDS_P2;PMS_P1;PMS_P2;Temp;Humidity;BMP_temperature;BMP_pressure;BME280_temperature;BME280_humidity;BME280_pressure;Samples;Min_cycle;Max_cycle;Signal;HPM_P1;HPM_P2
2022/04/27 00:01:11;;;;;;;8.90;3.85;;;12.60;77.40;;;;;;5133809;27;20065;-68
2022/04/27 00:03:37;;;;;;;12.07;3.88;;;12.60;77.50;;;;;;5133206;27;20050;-67
2022/04/27 00:06:03;;;;;;;12.10;3.53;;;12.60;77.60;;;;;;5134210;27;20031;-68
2022/04/27 00:08:28;;;;;;;6.78;3.53;;;12.60;77.60;;;;;;5133784;27;20035;-68
2022/04/27 00:10:54;;;;;;;11.43;3.92;;;12.60;78.00;;;;;;5133490;27;20026;-67
2022/04/27 00:13:20;;;;;;;6.38;3.80;;;12.60;77.70;;;;;;5133566;27;20042;-68
2022/04/27 00:15:45;;;;;;;12.90;3.60;;;12.60;77.70;;;;;;5133773;27;20562;-68
2022/04/27 00:18:11;;;;;;;12.98;4.13;;;12.60;77.80;;;;;;5132797;27;20023;-68
2022/04/27 00:20:40;;;;;;;11.10;4.35;;;12.50;77.70;;;;;;5133572;27;20035;-68
2022/04/27 00:23:05;;;;;;;12.32;4.03;;;12.50;77.90;;;;;;5133406;27;20027;-68
2022/04/27 00:25:32;;;;;;;9.23;4.13;;;12.60;77.90;;;;;;5132947;27;20047;-68
2022/04/27 00:27:58;;;;;;;7.85;4.50;;;12.60;77.90;;;;;;5133072;27;20389;-67
2022/04/27 00:30:24;;;;;;;8.65;4.50;;;12.50;78.00;;;;;;5133587;27;20030;-68
2022/04/27 00:32:50;;;;;;;9.52;4.53;;;12.60;78.10;;;;;;5132429;27;20030;-68
2022/04/27 00:35:15;;;;;;;11.73;3.95;;;12.50;78.10;;;;;;5123544;27;20047;-68
2022/04/27 00:37:41;;;;;;;12.65;4.35;;;12.60;78.20;;;;;;5128886;27;20035;-68
2022/04/27 00:40:07;;;;;;;11.98;4.78;;;12.50;78.20;;;;;;5132799;27;20035;-68
2022/04/27 00:42:33;;;;;;;9.50;4.50;;;12.50;78.30;;;;;;5132938;27;20473;-68
2022/04/27 00:44:58;;;;;;;10.13;4.47;;;12.50;78.40;;;;;;5124134;27;20066;-68
2022/04/27 00:47:24;;;;;;;16.33;5.30;;;12.50;78.40;;;;;;5127575;27;20626;-68
2022/04/27 00:49:54;;;;;;;8.98;4.97;;;12.50;78.50;;;;;;5132848;27;20515;-68
2022/04/27 00:52:26;;;;;;;8.85;4.75;;;12.50;78.70;;;;;;5132367;27;20027;-68
2022/04/27 00:54:53;;;;;;;10.25;4.45;;;12.50;78.80;;;;;;5131621;27;20031;-68
2022/04/27 00:57:20;;;;;;;12.00;4.25;;;12.50;78.90;;;;;;5132520;27;20431;-68
2022/04/27 00:59:52;;;;;;;8.13;4.70;;;12.50;78.90;;;;;;5127799;27;20394;-68
2022/04/27 01:02:18;;;;;;;13.82;4.47;;;12.50;79.10;;;;;;5117634;27;20047;-68
2022/04/27 01:04:44;;;;;;;13.18;5.03;;;12.50;79.20;;;;;;5124747;27;20027;-68
2022/04/27 01:07:11;;;;;;;10.95;5.00;;;12.50;79.30;;;;;;5130758;27;20132;-68
2022/04/27 01:09:38;;;;;;;10.70;4.57;;;12.50;79.40;;;;;;5118052;27;20023;-68
2022/04/27 01:12:07;;;;;;;15.13;4.22;;;12.50;79.50;;;;;;5131273;27;20031;-68
2022/04/27 01:14:43;;;;;;;10.43;4.60;;;12.50;79.60;;;;;;5130202;27;20039;-68
2022/04/27 01:17:09;;;;;;;11.52;4.38;;;12.50;79.80;;;;;;5127298;27;20027;-68
2022/04/27 01:19:34;;;;;;;12.50;4.70;;;12.50;79.80;;;;;;5131031;27;20041;-68
2022/04/27 01:22:04;;;;;;;8.55;4.32;;;12.50;79.90;;;;;;5130213;27;20494;-68
2022/04/27 01:24:34;;;;;;;14.57;4.60;;;12.50;79.90;;;;;;5131059;27;20031;-68
2022/04/27 01:27:00;;;;;;;13.70;4.50;;;12.50;80.00;;;;;;5130903;27;20023;-68
2022/04/27 01:29:25;;;;;;;9.48;4.60;;;12.50;80.00;;;;;;5130025;27;20068;-68
2022/04/27 01:31:53;;;;;;;9.95;4.43;;;12.50;80.70;;;;;;5130769;27;20027;-68
2022/04/27 01:34:20;;;;;;;9.20;4.30;;;12.50;80.30;;;;;;5125915;27;20039;-68
2022/04/27 01:36:48;;;;;;;9.30;5.00;;;12.50;80.40;;;;;;5126596;27;20023;-68
2022/04/27 01:39:14;;;;;;;9.70;4.40;;;12.50;80.40;;;;;;5130115;27;20038;-68
2022/04/27 01:41:40;;;;;;;9.15;4.47;;;12.40;80.50;;;;;;5131096;27;20023;-68
2022/04/27 01:44:06;;;;;;;10.75;4.70;;;12.40;80.60;;;;;;5130944;27;20478;-68
2022/04/27 01:46:32;;;;;;;15.50;5.25;;;12.40;80.70;;;;;;5131569;27;20040;-68
2022/04/27 01:48:58;;;;;;;10.65;4.43;;;12.50;80.80;;;;;;5131055;27;20027;-68
2022/04/27 01:54:16;;;;;;;8.95;4.50;;;12.50;81.60;;;;;;5125808;27;20114;-68
2022/04/27 01:56:45;;;;;;;7.93;4.88;;;12.40;80.90;;;;;;5130454;27;20031;-68
2022/04/27 01:59:12;;;;;;;9.57;4.50;;;12.50;81.10;;;;;;5130184;27;20054;-68
2022/04/27 02:01:39;;;;;;;7.95;4.32;;;12.50;81.10;;;;;;5130814;27;20031;-68
2022/04/27 02:04:05;;;;;;;10.20;4.50;;;12.50;81.30;;;;;;5131180;27;20360;-68
2022/04/27 02:06:31;;;;;;;10.80;4.20;;;12.40;81.30;;;;;;5130763;28;20192;-67
2022/04/27 02:08:59;;;;;;;16.02;4.95;;;12.50;81.30;;;;;;5126219;28;20027;-68
2022/04/27 02:11:33;;;;;;;10.95;4.28;;;12.50;81.40;;;;;;5129792;28;20027;-68
2022/04/27 02:14:06;;;;;;;8.70;4.20;;;12.40;81.50;;;;;;5130766;28;20098;-67
2022/04/27 02:16:33;;;;;;;10.23;4.05;;;12.40;81.50;;;;;;5130455;28;20027;-68
2022/04/27 02:19:02;;;;;;;9.32;4.03;;;12.40;81.50;;;;;;5129836;28;20126;-68
2022/04/27 02:21:28;;;;;;;12.25;4.15;;;12.40;81.60;;;;;;5130430;28;20123;-68
2022/04/27 02:23:55;;;;;;;9.85;4.43;;;12.40;81.70;;;;;;5129610;28;20125;-68
2022/04/27 02:26:22;;;;;;;7.25;3.88;;;12.40;81.80;;;;;;5130480;28;20043;-68
2022/04/27 02:28:47;;;;;;;10.85;4.03;;;12.50;81.90;;;;;;5130178;27;20039;-68
2022/04/27 02:31:14;;;;;;;8.10;3.58;;;12.50;81.90;;;;;;5117676;28;20055;-68
2022/04/27 02:33:39;;;;;;;7.63;3.75;;;12.40;81.80;;;;;;5130184;28;20077;-68
2022/04/27 02:36:05;;;;;;;11.35;3.70;;;12.40;81.80;;;;;;5131796;27;20076;-68
2022/04/27 02:38:31;;;;;;;13.40;3.80;;;12.50;81.90;;;;;;5129152;28;20393;-68
2022/04/27 02:41:03;;;;;;;9.23;3.47;;;12.40;81.90;;;;;;5130706;27;20030;-68
2022/04/27 02:43:31;;;;;;;9.40;3.85;;;12.50;82.00;;;;;;5133796;27;20163;-68
2022/04/27 02:45:58;;;;;;;10.38;4.13;;;12.50;82.00;;;;;;5133249;27;20057;-68
2022/04/27 02:48:23;;;;;;;10.15;3.85;;;12.40;81.90;;;;;;5121156;27;20032;-68
2022/04/27 02:53:36;;;;;;;8.23;3.58;;;12.50;82.20;;;;;;5119559;27;20102;-68
2022/04/27 02:56:03;;;;;;;7.75;3.92;;;12.50;82.20;;;;;;5135307;27;20486;-68
2022/04/27 02:58:29;;;;;;;9.65;3.83;;;12.50;82.20;;;;;;5115998;27;20054;-68
2022/04/27 03:00:55;;;;;;;9.75;4.13;;;12.40;82.30;;;;;;5123774;27;20079;-67
2022/04/27 03:03:21;;;;;;;8.38;3.63;;;12.50;82.30;;;;;;5114913;27;20055;-68
2022/04/27 03:05:47;;;;;;;8.73;3.35;;;12.50;82.30;;;;;;5122238;27;20122;-68
2022/04/27 03:08:14;;;;;;;6.10;3.35;;;12.50;82.10;;;;;;5132994;27;20461;-68
2022/04/27 03:10:49;;;;;;;9.00;3.40;;;12.50;82.00;;;;;;5118050;27;20031;-68
2022/04/27 03:13:17;;;;;;;6.05;3.17;;;12.40;81.90;;;;;;5112556;28;20028;-68
2022/04/27 03:15:44;;;;;;;6.20;3.08;;;12.40;81.90;;;;;;5129100;27;20135;-68
2022/04/27 03:18:22;;;;;;;5.97;3.10;;;12.40;82.00;;;;;;5134898;27;20447;-67
2022/04/27 03:20:50;;;;;;;6.95;3.30;;;12.40;82.10;;;;;;5132494;27;20031;-68
2022/04/27 03:23:16;;;;;;;8.23;3.95;;;12.40;82.20;;;;;;5133636;27;20517;-67
2022/04/27 03:25:47;;;;;;;4.45;3.10;;;12.40;82.30;;;;;;5113476;27;20127;-68
2022/04/27 03:28:13;;;;;;;3.60;2.33;;;12.40;82.30;;;;;;5124430;27;20025;-68
2022/04/27 03:30:40;;;;;;;6.28;2.80;;;12.40;82.10;;;;;;5117052;27;20032;-68
2022/04/27 03:33:17;;;;;;;5.32;2.88;;;12.40;82.00;;;;;;5119291;27;20059;-68
2022/04/27 03:35:43;;;;;;;6.15;2.67;;;12.40;82.10;;;;;;5111123;27;20027;-68
2022/04/27 03:38:10;;;;;;;6.25;3.00;;;12.40;82.10;;;;;;5111902;28;20026;-68
2022/04/27 03:40:37;;;;;;;12.73;2.80;;;12.40;82.10;;;;;;5111721;28;20107;-68
2022/04/27 03:43:03;;;;;;;7.43;3.38;;;12.40;82.00;;;;;;5111132;28;20495;-68
2022/04/27 03:45:29;;;;;;;6.47;2.83;;;12.40;81.80;;;;;;5114835;27;20027;-68
2022/04/27 03:47:56;;;;;;;8.63;2.95;;;12.40;81.80;;;;;;5122742;27;20039;-68
2022/04/27 03:50:24;;;;;;;8.05;3.08;;;12.40;81.70;;;;;;5132120;27;20027;-68
2022/04/27 03:52:52;;;;;;;6.05;2.80;;;12.40;81.60;;;;;;5132504;27;20027;-67
2022/04/27 03:55:18;;;;;;;4.55;2.50;;;12.40;81.50;;;;;;5131817;27;20019;-68
2022/04/27 03:57:46;;;;;;;4.60;2.70;;;12.40;81.30;;;;;;5132933;27;20038;-68
2022/04/27 04:00:12;;;;;;;7.20;3.08;;;12.40;81.90;;;;;;5132319;27;20039;-68
2022/04/27 04:02:47;;;;;;;6.22;2.60;;;12.40;81.30;;;;;;5131851;27;20034;-68
2022/04/27 04:05:13;;;;;;;7.43;3.05;;;12.40;81.20;;;;;;5133853;27;20043;-68
2022/04/27 04:07:40;;;;;;;6.07;3.00;;;12.40;81.20;;;;;;5132271;27;20060;-68
2022/04/27 04:10:06;;;;;;;9.23;2.88;;;12.40;81.20;;;;;;5120761;27;20034;-67
2022/04/27 04:12:33;;;;;;;6.43;2.90;;;12.40;81.20;;;;;;5132360;27;20038;-68
2022/04/27 04:15:19;;;;;;;4.70;2.47;;;12.40;81.20;;;;;;5101510;27;20031;-67
2022/04/27 04:18:06;;;;;;;5.00;2.47;;;12.40;81.00;;;;;;5119755;27;20029;-67
2022/04/27 04:20:38;;;;;;;9.60;2.53;;;12.40;80.70;;;;;;5132058;27;20490;-68
2022/04/27 04:23:15;;;;;;;5.70;2.33;;;12.40;80.50;;;;;;5131648;27;20109;-67
2022/04/27 04:28:33;;;;;;;4.63;2.10;;;12.40;80.00;;;;;;5112401;27;20020;-67
2022/04/27 04:31:03;;;;;;;4.47;2.20;;;12.40;79.80;;;;;;5133180;27;20039;-68
2022/04/27 04:34:01;;;;;;;3.30;2.08;;;12.40;80.30;;;;;;5085070;27;20110;-68
2022/04/27 04:36:28;;;;;;;4.70;2.63;;;12.40;79.70;;;;;;5132024;27;20118;-68
2022/04/27 04:38:54;;;;;;;6.72;2.30;;;12.40;79.90;;;;;;5130689;27;20379;-67
2022/04/27 04:41:23;;;;;;;8.23;2.40;;;12.30;79.90;;;;;;5131562;27;20035;-68
2022/04/27 04:43:52;;;;;;;3.22;2.30;;;12.30;79.70;;;;;;5131876;27;20102;-67
2022/04/27 04:46:21;;;;;;;1.75;1.30;;;12.40;79.80;;;;;;5130518;27;20031;-68
2022/04/27 04:49:05;;;;;;;7.03;1.95;;;12.30;80.30;;;;;;5133288;27;20112;-68
2022/04/27 04:51:49;;;;;;;4.22;1.92;;;12.30;80.50;;;;;;5132323;27;20054;-68
2022/04/27 04:54:23;;;;;;;12.93;2.47;;;12.20;80.60;;;;;;5122522;27;20097;-68
2022/04/27 04:57:21;;;;;;;3.78;1.95;;;12.20;80.30;;;;;;5108537;27;20035;-68
2022/04/27 05:00:08;;;;;;;4.82;1.95;;;12.20;80.10;;;;;;5131875;27;20082;-68
2022/04/27 05:02:54;;;;;;;5.07;2.10;;;12.10;79.80;;;;;;5132644;27;20054;-68
2022/04/27 05:05:41;;;;;;;6.57;2.20;;;12.10;79.70;;;;;;5121277;27;20074;-68
2022/04/27 05:08:29;;;;;;;5.45;2.25;;;12.10;79.50;;;;;;5111443;27;20032;-68
2022/04/27 05:11:23;;;;;;;4.43;2.10;;;12.10;79.30;;;;;;5130767;27;20042;-68
2022/04/27 05:14:07;;;;;;;7.47;2.22;;;12.20;79.20;;;;;;5131857;27;20474;-68
2022/04/27 05:16:56;;;;;;;4.25;2.22;;;12.20;79.00;;;;;;5101615;27;20151;-68
2022/04/27 05:19:31;;;;;;;5.18;2.00;;;12.10;78.40;;;;;;5127669;27;20047;-68
2022/04/27 05:22:15;;;;;;;;;;;12.10;79.00;;;;;;5129089;27;20042;-68
2022/04/27 05:25:01;;;;;;;9.20;1.83;;;12.10;78.60;;;;;;5129700;27;19938;-68
2022/04/27 05:27:36;;;;;;;1.75;1.15;;;12.10;79.30;;;;;;5112331;27;20047;-68
2022/04/27 05:33:31;;;;;;;5.72;1.20;;;12.10;79.70;;;;;;5129150;27;20038;-68
2022/04/27 05:36:00;;;;;;;1.77;1.30;;;12.10;79.90;;;;;;5127232;27;20035;-69
2022/04/27 05:38:44;;;;;;;5.07;1.63;;;12.00;79.20;;;;;;5125979;27;20042;-68
2022/04/27 05:41:28;;;;;;;4.63;1.75;;;12.00;78.30;;;;;;5127346;27;20023;-68
2022/04/27 05:44:09;;;;;;;3.78;1.40;;;12.10;77.40;;;;;;5128471;27;20467;-68
2022/04/27 05:46:55;;;;;;;3.30;1.33;;;12.10;77.10;;;;;;5129104;27;20069;-68
2022/04/27 05:49:39;;;;;;;2.92;1.50;;;12.10;77.00;;;;;;5127417;27;20025;-68
2022/04/27 05:52:14;;;;;;;6.47;1.75;;;12.20;77.70;;;;;;5128095;27;20051;-68
2022/04/27 05:55:00;;;;;;;7.45;1.42;;;12.20;77.40;;;;;;5128809;27;20033;-69
2022/04/27 05:57:43;;;;;;;2.75;1.45;;;12.20;77.10;;;;;;5125748;27;20087;-68
2022/04/27 06:00:23;;;;;;;2.30;1.45;;;12.20;76.90;;;;;;5125247;27;20512;-69
2022/04/27 06:03:07;;;;;;;4.07;1.73;;;12.30;77.00;;;;;;5127527;28;20395;-70
2022/04/27 06:05:35;;;;;;;5.45;1.52;;;12.20;77.60;;;;;;5123170;28;20023;-69
2022/04/27 06:08:02;;;;;;;7.75;2.47;;;12.20;76.90;;;;;;5123882;28;20030;-68
2022/04/27 06:10:28;;;;;;;4.13;1.90;;;12.30;77.00;;;;;;5125888;28;20043;-70
2022/04/27 06:12:57;;;;;;;5.22;2.30;;;12.30;76.90;;;;;;5128570;28;20020;-70
2022/04/27 06:15:39;;;;;;;4.45;2.10;;;12.30;76.80;;;;;;5130049;27;20040;-71
2022/04/27 06:18:13;;;;;;;3.58;2.22;;;12.40;76.70;;;;;;5134489;27;20027;-70
2022/04/27 06:20:41;;;;;;;17.15;2.88;;;12.40;76.60;;;;;;5132850;27;20498;-70
2022/04/27 06:23:07;;;;;;;8.00;2.50;;;12.40;76.40;;;;;;5132396;27;20027;-71
2022/04/27 06:25:35;;;;;;;5.43;2.10;;;12.40;76.60;;;;;;5130856;27;20026;-71
2022/04/27 06:28:09;;;;;;;8.35;2.50;;;12.40;76.70;;;;;;5131790;27;20031;-71
2022/04/27 06:30:35;;;;;;;6.68;1.65;;;12.40;77.00;;;;;;5133396;27;20497;-67
2022/04/27 06:33:03;;;;;;;4.38;1.80;;;12.50;77.00;;;;;;5133783;27;20022;-68
2022/04/27 06:35:29;;;;;;;2.70;1.75;;;12.40;76.90;;;;;;5133591;27;20113;-70
2022/04/27 06:38:01;;;;;;;7.20;1.95;;;12.50;76.90;;;;;;5133805;27;20027;-67
2022/04/27 06:40:27;;;;;;;2.97;1.50;;;12.50;76.90;;;;;;5133268;27;20697;-71
2022/04/27 06:42:56;;;;;;;8.50;2.40;;;12.50;76.70;;;;;;5133123;27;20036;-71
2022/04/27 06:45:59;;;;;;;3.03;1.65;;;12.50;76.70;;;;;;5128954;27;20517;-71
2022/04/27 06:49:03;;;;;;;5.43;2.00;;;12.50;76.60;;;;;;5133171;27;20117;-71
2022/04/27 06:51:48;;;;;;;7.88;2.30;;;12.60;76.50;;;;;;5131712;27;20451;-71
2022/04/27 06:54:17;;;;;;;6.53;2.50;;;12.60;76.10;;;;;;5132008;27;20043;-70
2022/04/27 06:57:01;;;;;;;5.38;2.17;;;12.60;75.70;;;;;;5131093;27;20092;-67
2022/04/27 06:59:55;;;;;;;9.57;2.58;;;12.70;75.80;;;;;;5122017;27;20058;-67
2022/04/27 07:02:21;;;;;;;5.80;2.10;;;12.70;76.00;;;;;;5135217;27;20612;-67
2022/04/27 07:04:52;;;;;;;5.75;1.88;;;12.70;76.00;;;;;;5133623;27;20117;-67
2022/04/27 07:07:18;;;;;;;6.97;2.10;;;12.70;75.90;;;;;;5121835;27;20479;-69
2022/04/27 07:09:43;;;;;;;5.38;1.88;;;12.80;75.80;;;;;;5133493;27;20025;-70
2022/04/27 07:12:09;;;;;;;5.35;2.28;;;12.80;76.30;;;;;;5134661;27;20038;-69
2022/04/27 07:14:35;;;;;;;5.15;2.20;;;12.80;76.70;;;;;;5133374;27;20026;-68
2022/04/27 07:17:01;;;;;;;5.97;1.95;;;12.80;77.10;;;;;;5133113;27;20113;-69
2022/04/27 07:19:27;;;;;;;4.22;1.83;;;12.80;77.00;;;;;;5133668;27;20035;-69
2022/04/27 07:21:53;;;;;;;4.80;2.10;;;12.80;77.30;;;;;;5133109;27;20030;-69
2022/04/27 07:24:20;;;;;;;7.72;2.28;;;12.80;77.40;;;;;;5134199;27;20035;-69
2022/04/27 07:26:46;;;;;;;10.30;2.38;;;12.80;77.40;;;;;;5133313;27;20028;-70
2022/04/27 07:29:12;;;;;;;5.43;2.13;;;12.70;77.50;;;;;;5134974;27;20027;-71
2022/04/27 07:31:37;;;;;;;4.25;2.28;;;12.70;77.40;;;;;;5134501;27;20027;-70
2022/04/27 07:34:03;;;;;;;4.20;2.38;;;12.80;76.70;;;;;;5121468;27;20024;-69
2022/04/27 07:36:29;;;;;;;9.82;2.50;;;12.80;76.60;;;;;;5126636;27;20624;-69
2022/04/27 07:38:54;;;;;;;4.07;2.10;;;12.80;77.00;;;;;;5133063;27;20028;-68
2022/04/27 07:41:20;;;;;;;2.20;1.88;;;12.80;77.10;;;;;;5130403;27;20059;-68
2022/04/27 07:43:45;;;;;;;5.38;2.30;;;12.80;77.20;;;;;;5132889;27;20015;-68
2022/04/27 07:46:11;;;;;;;3.40;1.95;;;12.90;77.20;;;;;;5132586;27;20383;-67
2022/04/27 07:48:37;;;;;;;4.72;2.33;;;12.90;77.60;;;;;;5131945;27;20023;-68
2022/04/27 07:51:05;;;;;;;5.20;2.00;;;12.90;77.40;;;;;;5133733;27;20030;-68
2022/04/27 07:53:31;;;;;;;8.95;2.05;;;12.90;77.90;;;;;;5134219;27;20042;-68
2022/04/27 07:55:56;;;;;;;4.43;1.90;;;12.80;77.80;;;;;;5133028;27;20023;-68
2022/04/27 07:58:22;;;;;;;3.83;1.55;;;12.80;77.90;;;;;;5133060;27;20043;-68
2022/04/27 08:00:48;;;;;;;3.63;1.60;;;12.80;77.80;;;;;;5133758;27;20380;-68
2022/04/27 08:03:14;;;;;;;4.78;1.90;;;12.70;77.80;;;;;;5133518;27;20023;-68
2022/04/27 08:05:39;;;;;;;5.38;1.98;;;12.70;77.40;;;;;;5127240;27;20431;-68
2022/04/27 08:08:06;;;;;;;6.43;1.85;;;12.70;77.30;;;;;;5134147;27;20343;-68
2022/04/27 08:10:32;;;;;;;3.38;1.83;;;12.80;77.70;;;;;;5132806;27;20096;-68
2022/04/27 08:12:58;;;;;;;3.95;1.90;;;12.80;77.60;;;;;;5134139;27;20031;-68
2022/04/27 08:15:25;;;;;;;2.88;1.75;;;12.80;77.60;;;;;;5131547;27;20386;-68
2022/04/27 08:17:59;;;;;;;2.42;1.20;;;12.80;78.00;;;;;;5133275;27;20035;-68
2022/04/27 08:23:13;;;;;;;3.88;1.50;;;12.80;77.70;;;;;;5132861;27;20050;-68
2022/04/27 08:25:39;;;;;;;3.72;1.25;;;12.80;77.60;;;;;;5133717;27;20371;-68
2022/04/27 08:28:07;;;;;;;2.28;1.08;;;12.80;78.00;;;;;;5130807;27;20035;-68
2022/04/27 08:30:37;;;;;;;4.75;1.33;;;12.80;78.10;;;;;;5122185;27;20129;-68
2022/04/27 08:33:04;;;;;;;0.82;0.77;;;12.80;78.00;;;;;;5120529;27;20027;-68
2022/04/27 08:35:32;;;;;;;7.63;1.83;;;12.80;78.40;;;;;;5133268;27;20050;-68
2022/04/27 08:38:01;;;;;;;3.88;1.85;;;12.80;78.10;;;;;;5132437;27;20111;-68
2022/04/27 08:40:30;;;;;;;6.07;1.85;;;12.80;77.90;;;;;;5131614;27;20035;-68
2022/04/27 08:42:57;;;;;;;5.00;2.22;;;12.80;77.80;;;;;;5133015;27;20027;-68
2022/04/27 08:45:23;;;;;;;4.70;1.90;;;12.80;78.10;;;;;;5131707;27;20092;-68
2022/04/27 08:47:50;;;;;;;10.80;1.92;;;12.80;77.80;;;;;;5121841;27;20762;-68
2022/04/27 08:50:18;;;;;;;4.30;1.85;;;12.90;78.00;;;;;;5132859;27;20560;-68
2022/04/27 08:52:45;;;;;;;6.93;2.10;;;12.90;78.10;;;;;;5132665;27;20436;-68
2022/04/27 08:55:11;;;;;;;4.55;1.60;;;12.90;77.80;;;;;;5120248;27;20439;-68
2022/04/27 08:57:38;;;;;;;5.65;2.35;;;12.90;77.80;;;;;;5131322;27;20027;-69
2022/04/27 09:00:08;;;;;;;7.70;2.55;;;12.90;77.20;;;;;;5132697;27;20402;-65
2022/04/27 09:02:35;;;;;;;4.72;2.10;;;13.00;76.90;;;;;;5132557;27;20051;-68
2022/04/27 09:05:15;;;;;;;7.50;2.03;;;13.10;76.60;;;;;;5132050;27;20027;-68
2022/04/27 09:07:51;;;;;;;6.30;2.17;;;13.10;76.20;;;;;;5120731;27;20035;-68
2022/04/27 09:10:27;;;;;;;13.32;2.50;;;13.20;76.00;;;;;;5119923;27;20479;-68
2022/04/27 09:12:57;;;;;;;10.40;2.70;;;13.20;76.20;;;;;;5131677;27;20126;-68
2022/04/27 09:15:25;;;;;;;7.40;1.90;;;13.20;76.10;;;;;;5123156;27;20035;-68
2022/04/27 09:23:37;;;;;;;9.82;2.67;;;13.40;76.30;;;;;;5122912;27;20036;-68
2022/04/27 09:26:15;;;;;;;14.02;2.58;;;13.50;76.30;;;;;;5132011;27;20031;-68
2022/04/27 09:28:45;;;;;;;10.05;2.17;;;13.50;76.10;;;;;;5132210;27;20027;-69
2022/04/27 09:31:13;;;;;;;14.23;2.25;;;13.50;76.00;;;;;;5132498;27;20043;-68
2022/04/27 09:33:39;;;;;;;8.20;2.03;;;13.50;75.90;;;;;;5131651;27;20080;-68
2022/04/27 09:36:23;;;;;;;10.85;2.35;;;13.60;75.80;;;;;;5123451;27;20039;-68
2022/04/27 09:38:52;;;;;;;;;;;13.60;75.80;;;;;;5128911;27;20099;-72
2022/04/27 09:41:42;;;;;;;11.15;2.65;;;13.60;76.10;;;;;;5130297;27;19915;-68
2022/04/27 09:44:10;;;;;;;10.63;1.98;;;13.60;76.00;;;;;;5130405;27;20034;-68
2022/04/27 09:46:40;;;;;;;8.02;1.60;;;13.60;76.50;;;;;;5129838;27;20088;-69
2022/04/27 09:49:09;;;;;;;6.38;1.77;;;13.60;75.70;;;;;;5131541;27;20023;-69
2022/04/27 09:51:36;;;;;;;10.95;2.90;;;13.60;75.80;;;;;;5131523;27;20149;-68
2022/04/27 09:54:03;;;;;;;7.88;2.58;;;13.70;75.50;;;;;;5131380;27;20035;-68
2022/04/27 09:56:38;;;;;;;15.00;2.63;;;13.70;75.30;;;;;;5132023;27;20496;-67
2022/04/27 09:59:07;;;;;;;10.35;2.35;;;13.70;75.10;;;;;;5131741;27;20490;-68
2022/04/27 10:01:35;;;;;;;8.45;1.90;;;13.70;75.00;;;;;;5129865;27;20498;-68
2022/04/27 10:04:04;;;;;;;9.75;1.90;;;13.80;75.10;;;;;;5131880;27;20062;-68
2022/04/27 10:06:34;;;;;;;13.82;2.13;;;13.80;74.80;;;;;;5132295;27;20066;-68
2022/04/27 10:09:03;;;;;;;14.75;2.83;;;13.80;74.60;;;;;;5127157;27;20030;-68
2022/04/27 10:11:29;;;;;;;10.27;2.63;;;13.80;74.60;;;;;;5130700;27;20031;-68
2022/04/27 10:13:55;;;;;;;11.07;2.22;;;13.80;74.40;;;;;;5132184;27;20038;-68
2022/04/27 10:16:23;;;;;;;7.00;2.00;;;13.90;74.30;;;;;;5130754;27;20196;-68
2022/04/27 10:18:49;;;;;;;7.90;2.20;;;13.90;74.10;;;;;;5131064;27;20109;-68
2022/04/27 10:21:39;;;;;;;9.90;2.05;;;13.90;74.20;;;;;;5118667;28;20039;-68
2022/04/27 10:24:09;;;;;;;10.80;2.13;;;13.90;74.70;;;;;;5131096;27;20076;-68
2022/04/27 10:26:35;;;;;;;9.55;1.90;;;14.00;74.50;;;;;;5131149;27;20023;-68
2022/04/27 10:29:06;;;;;;;15.23;2.65;;;14.00;74.50;;;;;;5131068;27;20057;-68
2022/04/27 10:31:40;;;;;;;12.43;2.17;;;14.00;74.40;;;;;;5125522;28;20393;-68
2022/04/27 10:34:22;;;;;;;13.23;2.53;;;14.00;74.40;;;;;;5128708;28;20038;-69
2022/04/27 10:36:51;;;;;;;9.38;2.38;;;14.00;74.20;;;;;;5129011;28;20059;-68
2022/04/27 10:39:23;;;;;;;15.10;2.65;;;14.00;74.10;;;;;;5131040;28;20047;-68
2022/04/27 10:42:04;;;;;;;5.75;1.85;;;14.00;73.90;;;;;;5131501;27;20463;-68
2022/04/27 10:44:47;;;;;;;9.75;1.90;;;14.10;74.00;;;;;;5124895;27;20035;-69
2022/04/27 10:47:14;;;;;;;6.65;2.13;;;14.00;73.60;;;;;;5126961;28;20038;-68
2022/04/27 10:49:40;;;;;;;11.95;1.95;;;14.00;73.50;;;;;;5118073;27;20027;-68
2022/04/27 10:52:10;;;;;;;9.82;1.98;;;14.00;73.50;;;;;;5129457;27;20031;-69
2022/04/27 10:54:37;;;;;;;11.32;2.13;;;14.00;73.50;;;;;;5130504;27;20061;-65
2022/04/27 10:57:24;;;;;;;6.80;1.85;;;14.00;73.40;;;;;;5127294;27;20141;-66
2022/04/27 11:00:03;;;;;;;9.02;1.80;;;14.10;73.50;;;;;;5128690;28;20051;-66
2022/04/27 11:02:34;;;;;;;8.02;2.00;;;14.10;73.20;;;;;;5127231;27;20028;-66
2022/04/27 11:05:02;;;;;;;5.93;1.83;;;14.20;73.90;;;;;;5131510;27;20027;-66
2022/04/27 11:07:37;;;;;;;12.38;2.20;;;14.10;73.00;;;;;;5127498;27;20946;-66
2022/04/27 11:10:20;;;;;;;9.85;1.83;;;14.20;72.90;;;;;;5129037;27;20019;-66
2022/04/27 11:12:52;;;;;;;9.48;2.60;;;14.20;72.80;;;;;;5127382;27;20035;-66
2022/04/27 11:15:23;;;;;;;8.73;2.58;;;14.20;72.70;;;;;;5127860;27;20082;-66
2022/04/27 11:17:55;;;;;;;6.35;1.90;;;14.30;73.00;;;;;;5127497;27;20023;-67
2022/04/27 11:20:30;;;;;;;12.25;2.15;;;14.20;72.90;;;;;;5123459;27;20500;-67
2022/04/27 11:22:56;;;;;;;10.20;2.30;;;14.30;72.60;;;;;;5128065;27;20095;-66
2022/04/27 11:25:48;;;;;;;9.90;2.03;;;14.30;72.60;;;;;;5129068;27;20508;-66
2022/04/27 11:28:15;;;;;;;9.18;2.33;;;14.40;72.40;;;;;;5129069;27;20042;-67
2022/04/27 11:30:40;;;;;;;22.83;2.80;;;14.40;72.20;;;;;;5130269;27;20434;-73
2022/04/27 11:33:06;;;;;;;37.33;2.50;;;14.50;72.20;;;;;;5129513;27;20028;-65
2022/04/27 11:35:40;;;;;;;14.65;2.40;;;14.50;72.50;;;;;;5134844;27;20092;-66
2022/04/27 11:38:08;;;;;;;7.35;2.28;;;14.50;72.20;;;;;;5119849;27;20481;-66
2022/04/27 11:40:37;;;;;;;10.18;2.50;;;14.50;71.70;;;;;;5133253;27;20172;-66
2022/04/27 11:43:06;;;;;;;11.65;2.90;;;14.50;71.50;;;;;;5134892;27;20160;-66
2022/04/27 11:45:33;;;;;;;8.73;2.25;;;14.50;71.30;;;;;;5134124;27;20047;-66
2022/04/27 11:48:04;;;;;;;13.98;2.58;;;14.50;71.00;;;;;;5133953;27;20030;-66
2022/04/27 11:50:34;;;;;;;8.27;1.92;;;14.60;71.20;;;;;;5133593;27;20417;-66
2022/04/27 11:53:02;;;;;;;10.98;1.73;;;14.60;71.40;;;;;;5131445;27;20043;-66
2022/04/27 11:55:28;;;;;;;32.95;2.88;;;14.70;71.60;;;;;;5119991;27;20027;-66
2022/04/27 11:57:54;;;;;;;21.95;2.33;;;14.70;71.10;;;;;;5133099;27;20416;-66
2022/04/27 12:00:26;;;;;;;8.57;2.40;;;14.70;71.10;;;;;;5133535;27;20386;-65
2022/04/27 12:02:53;;;;;;;10.30;2.03;;;14.70;71.90;;;;;;5121403;27;20042;-66
2022/04/27 12:05:33;;;;;;;7.45;1.70;;;14.70;71.90;;;;;;5127265;27;20038;-66
2022/04/27 12:08:01;;;;;;;8.60;1.60;;;14.70;72.20;;;;;;5128959;27;20553;-67
2022/04/27 12:10:29;;;;;;;2.85;1.13;;;14.70;74.60;;;;;;5124836;27;20027;-67
2022/04/27 12:12:59;;;;;;;8.00;1.80;;;14.70;75.80;;;;;;5133842;27;20057;-67
2022/04/27 12:15:26;;;;;;;8.15;1.67;;;14.60;75.00;;;;;;5133438;27;20083;-68
2022/04/27 12:17:57;;;;;;;8.55;2.13;;;14.60;73.90;;;;;;5133803;27;20027;-68
2022/04/27 12:20:37;;;;;;;7.68;2.20;;;14.60;73.60;;;;;;5133436;27;20531;-67
2022/04/27 12:23:24;;;;;;;6.78;1.67;;;14.60;74.60;;;;;;5132993;27;20066;-67
2022/04/27 12:25:53;;;;;;;12.23;2.05;;;14.60;74.30;;;;;;5133824;27;20126;-67
2022/04/27 12:28:21;;;;;;;15.50;2.38;;;14.60;74.40;;;;;;5133704;27;20035;-67
2022/04/27 12:30:58;;;;;;;5.03;1.52;;;14.60;74.40;;;;;;5132497;27;20104;-67
2022/04/27 12:33:35;;;;;;;10.13;2.55;;;14.60;75.40;;;;;;5133441;27;20080;-67
2022/04/27 12:39:09;;;;;;;13.48;2.00;;;14.70;74.00;;;;;;5133195;27;20030;-67
2022/04/27 12:42:02;;;;;;;5.90;2.08;;;14.70;73.40;;;;;;5133118;27;20887;-67
2022/04/27 12:44:41;;;;;;;14.05;3.15;;;14.70;73.20;;;;;;5128616;27;20054;-68
2022/04/27 12:47:13;;;;;;;5.45;2.03;;;14.70;73.30;;;;;;5133100;27;20027;-67
2022/04/27 12:49:44;;;;;;;12.60;1.90;;;14.70;72.00;;;;;;5132520;27;20054;-67
2022/04/27 12:52:30;;;;;;;18.77;2.70;;;14.80;70.90;;;;;;5133248;27;20019;-67
2022/04/27 12:55:07;;;;;;;7.63;2.00;;;14.80;70.50;;;;;;5120322;27;20036;-68
2022/04/27 12:57:50;;;;;;;10.88;2.75;;;14.80;70.80;;;;;;5132497;27;20027;-67
2022/04/27 13:00:18;;;;;;;12.07;2.13;;;14.90;71.20;;;;;;5131418;27;20117;-67
2022/04/27 13:02:44;;;;;;;14.73;2.63;;;14.90;71.40;;;;;;5133028;27;20038;-67
2022/04/27 13:05:10;;;;;;;9.80;1.92;;;15.00;71.40;;;;;;5126648;27;20032;-67
2022/04/27 13:07:36;;;;;;;6.30;2.00;;;15.00;70.90;;;;;;5125480;27;20415;-68
2022/04/27 13:12:48;;;;;;;12.18;2.28;;;15.10;72.10;;;;;;5131740;27;20118;-67
2022/04/27 13:15:14;;;;;;;11.77;2.40;;;15.10;72.20;;;;;;5132928;27;20110;-67
2022/04/27 13:17:39;;;;;;;10.77;2.00;;;15.20;71.40;;;;;;5132461;27;20027;-67
2022/04/27 13:20:08;;;;;;;9.60;2.65;;;15.10;70.10;;;;;;5132125;27;20030;-67
2022/04/27 13:22:35;;;;;;;6.55;1.67;;;15.20;70.80;;;;;;5132191;27;20015;-67
2022/04/27 13:25:01;;;;;;;5.28;2.03;;;15.30;71.90;;;;;;5131526;27;20035;-67
2022/04/27 13:27:27;;;;;;;13.73;2.33;;;15.30;72.70;;;;;;5118934;27;20035;-67
2022/04/27 13:29:54;;;;;;;7.72;1.15;;;15.30;72.50;;;;;;5132721;27;20038;-67